Time;durP1;ratioP1;P1;durP2;ratioP2;P2;SDS_P1;SDS_P2;PMS_P1;PMS_P2;Temp;Humidity;BMP_temperature;BMP_pressure;BME280_temperature;BME280_humidity;BME280_pressure;Samples;Min_cycle;Max_cycle;Signal;HPM_P1;HPM_P2
2022/05/10 00:00:27;;;;;;;1.60;1.13;;;;;;;5.67;53.72;100756.66;371046;144;865912;-58
2022/05/10 00:01:32;;;;;;;4.74;1.51;;;;;;;5.62;53.86;100756.56;366088;146;857650;-58
2022/05/10 00:02:34;;;;;;;4.26;1.38;;;;;;;5.58;53.92;100752.18;359503;146;864569;-58
2022/05/10 00:03:36;;;;;;;2.88;1.39;;;;;;;5.56;53.96;100756.41;359301;150;857389;-59
2022/05/10 00:04:38;;;;;;;1.90;1.14;;;;;;;5.56;53.83;100756.41;358509;146;856663;-59
2022/05/10 00:05:40;;;;;;;3.51;1.37;;;;;;;5.55;53.98;100755.52;359434;147;866865;-58
2022/05/10 00:06:44;;;;;;;1.76;1.34;;;;;;;5.56;54.05;100757.26;359287;150;866747;-58
2022/05/10 00:07:46;;;;;;;3.84;1.39;;;;;;;5.61;53.95;100747.12;356304;148;857221;-58
2022/05/10 00:08:48;;;;;;;2.96;1.25;;;;;;;5.66;53.66;100748.10;356254;150;857711;-58
2022/05/10 00:09:49;;;;;;;2.01;1.41;;;;;;;;;;359358;150;865828;-58
2022/05/10 00:10:51;;;;;;;3.89;1.46;;;;;;;;;;359371;150;865944;-59
2022/05/10 00:11:53;;;;;;;1.29;1.04;;;;;;;;;;360348;147;865710;-59
2022/05/10 00:12:54;;;;;;;3.16;1.29;;;;;;;;;;364643;147;858573;-58
2022/05/10 00:13:56;;;;;;;2.33;1.47;;;;;;;;;;364541;147;866658;-59
2022/05/10 00:14:57;;;;;;;4.18;1.33;;;;;;;;;;363102;147;858988;-58
2022/05/10 00:15:58;;;;;;;4.27;1.42;;;;;;;;;;360526;149;859100;-58
2022/05/10 00:17:00;;;;;;;3.25;1.42;;;;;;;;;;360558;149;859794;-57
2022/05/10 00:18:02;;;;;;;2.68;1.50;;;;;;;;;;360460;149;865372;-58
2022/05/10 00:19:03;;;;;;;3.05;1.59;;;;;;;;;;360537;149;858790;-58
2022/05/10 00:20:05;;;;;;;2.66;1.44;;;;;;;;;;360507;149;859571;-57
2022/05/10 00:21:08;;;;;;;3.83;1.77;;;;;;;;;;360487;149;864727;-58
2022/05/10 00:22:09;;;;;;;4.32;1.59;;;;;;;;;;360405;149;857873;-58
2022/05/10 00:23:11;;;;;;;2.86;1.54;;;;;;;;;;360378;149;857425;-58
2022/05/10 00:24:13;;;;;;;1.84;0.98;;;;;;;;;;360242;147;857530;-61
2022/05/10 00:25:15;;;;;;;2.71;0.99;;;;;;;;;;359228;148;863989;-58
2022/05/10 00:26:17;;;;;;;5.10;1.02;;;;;;;;;;355025;151;864842;-58
2022/05/10 00:27:19;;;;;;;0.63;0.49;;;;;;;;;;365105;147;857771;-58
2022/05/10 00:28:20;;;;;;;1.07;0.83;;;;;;;;;;365923;147;857361;-58
2022/05/10 00:29:22;;;;;;;0.68;0.56;;;;;;;;;;365990;147;857368;-58
2022/05/10 00:30:24;;;;;;;2.05;1.02;;;;;;;;;;366059;147;865137;-58
2022/05/10 00:31:25;;;;;;;1.20;0.60;;;;;;;;;;366041;147;865895;-58
2022/05/10 00:32:28;;;;;;;0.91;0.76;;;;;;;;;;366069;147;865203;-57
2022/05/10 00:33:30;;;;;;;1.46;0.62;;;;;;;;;;365068;147;865298;-58
2022/05/10 00:34:32;;;;;;;1.07;0.71;;;;;;;;;;359025;150;866833;-58
2022/05/10 00:35:34;;;;;;;1.39;1.04;;;;;;;;;;359018;150;859788;-58
2022/05/10 00:36:36;;;;;;;0.98;0.59;;;;;;;;;;359031;150;857390;-58
2022/05/10 00:37:38;;;;;;;1.73;1.08;;;;;;;;;;361318;148;863896;-58
2022/05/10 00:38:40;;;;;;;2.21;1.16;;;;;;;;;;363172;148;857362;-58
2022/05/10 00:39:41;;;;;;;0.71;0.59;;;;;;;;;;363202;148;857729;-58
2022/05/10 00:40:43;;;;;;;1.61;0.96;;;;;;;;;;363168;148;857194;-58
2022/05/10 00:41:50;;;;;;;2.72;1.52;;;;;;;;;;363109;148;866608;-58
2022/05/10 00:43:03;;;;;;;6.68;1.88;;;;;;;;;;356552;151;864473;-59
2022/05/10 00:44:09;;;;;;;3.16;1.65;;;;;;;;;;362041;147;857297;-59
2022/05/10 00:45:14;;;;;;;2.94;1.59;;;;;;;;;;365671;147;860883;-59
2022/05/10 00:46:17;;;;;;;3.73;1.66;;;;;;;;;;365665;147;859304;-59
2022/05/10 00:47:23;;;;;;;2.31;1.41;;;;;;;;;;365785;147;857641;-58
2022/05/10 00:48:29;;;;;;;3.34;1.80;;;;;;;;;;364809;147;857779;-57
2022/05/10 00:49:39;;;;;;;3.17;1.79;;;;;;;;;;364840;147;857505;-58
2022/05/10 00:50:46;;;;;;;2.93;1.51;;;;;;;;;;363218;147;857366;-57
2022/05/10 00:51:51;;;;;;;3.07;1.75;;;;;;;;;;358617;147;857904;-58
2022/05/10 00:52:58;;;;;;;3.34;1.64;;;;;;;;;;359133;147;859562;-57
2022/05/10 00:54:04;;;;;;;3.37;2.02;;;;;;;;;;359342;147;858134;-57
2022/05/10 00:55:19;;;;;;;2.84;1.73;;;;;;;;;;349437;153;859062;-57
2022/05/10 00:56:26;;;;;;;9.22;2.99;;;;;;;;;;350755;150;857893;-57
2022/05/10 00:57:29;;;;;;;6.49;2.09;;;;;;;;;;358993;150;858986;-59
2022/05/10 00:58:32;;;;;;;3.74;1.77;;;;;;;;;;358444;147;857472;-59
2022/05/10 00:59:36;;;;;;;2.82;1.76;;;;;;;;;;363886;147;857329;-59
2022/05/10 01:00:37;;;;;;;4.33;1.81;;;;;;;;;;360799;147;856711;-58
2022/05/10 01:01:39;;;;;;;3.49;1.90;;;;;;;;;;365690;147;859065;-57
2022/05/10 01:02:42;;;;;;;4.54;1.91;;;;;;;;;;365663;147;864656;-57
2022/05/10 01:03:46;;;;;;;8.67;2.00;;;;;;;;;;364866;147;864833;-57
2022/05/10 01:04:49;;;;;;;3.06;1.84;;;;;;;;;;360189;147;866268;-58
2022/05/10 01:05:52;;;;;;;6.59;2.16;;;;;;;;;;359152;147;857208;-58
2022/05/10 01:06:59;;;;;;;4.65;2.16;;;;;;;;;;359193;147;857280;-58
2022/05/10 01:08:03;;;;;;;4.53;1.74;;;;;;;;;;361489;147;857849;-58
2022/05/10 01:09:05;;;;;;;6.85;2.50;;;;;;;;;;365492;147;857388;-58
2022/05/10 01:10:09;;;;;;;4.08;1.75;;;;;;;;;;365695;147;857260;-58
2022/05/10 01:11:12;;;;;;;1.73;0.77;;;;;;;;;;365605;147;857885;-58
2022/05/10 01:12:15;;;;;;;0.76;0.65;;;;;;;;;;361883;147;857216;-57
2022/05/10 01:13:25;;;;;;;4.81;0.98;;;;;;;;;;352094;153;857803;-58
2022/05/10 01:14:32;;;;;;;2.25;0.94;;;;;;;;;;352515;150;857395;-57
2022/05/10 01:15:33;;;;;;;1.38;0.92;;;;;;;;;;365774;147;865508;-58
2022/05/10 01:16:35;;;;;;;1.16;0.75;;;;;;;;;;365774;147;858982;-56
2022/05/10 01:17:36;;;;;;;1.68;0.96;;;;;;;;;;365967;147;857415;-57
2022/05/10 01:18:38;;;;;;;0.99;0.93;;;;;;;;;;360420;147;857385;-58
2022/05/10 01:19:40;;;;;;;1.01;0.74;;;;;;;;;;364314;147;857343;-58
2022/05/10 01:20:42;;;;;;;1.11;0.71;;;;;;;;;;359395;147;864864;-58
2022/05/10 01:22:03;;;;;;;5.55;2.03;;;;;;;;;;359362;147;857744;-59
2022/05/10 01:23:06;;;;;;;4.09;1.77;;;;;;;;;;359324;147;857361;-59
2022/05/10 01:24:15;;;;;;;3.47;1.79;;;;;;;;;;352073;153;858999;-59
2022/05/10 01:25:37;;;;;;;3.64;2.03;;;;;;;;;;359170;147;857724;-59
2022/05/10 01:26:59;;;;;;;4.09;2.03;;;;;;;;;;359498;147;856326;-59
2022/05/10 01:28:12;;;;;;;6.49;1.94;;;;;;;;;;347339;153;857907;-59
2022/05/10 01:29:18;;;;;;;3.81;2.09;;;;;;;;;;351419;153;857318;-59
2022/05/10 01:30:21;;;;;;;8.64;2.27;;;;;;;;;;351391;153;859056;-59
2022/05/10 01:31:24;;;;;;;3.55;2.09;;;;;;;;;;345176;156;857536;-59
2022/05/10 01:33:54;;;;;;;4.74;2.35;;;;;;;;;;354270;147;857888;-59
2022/05/10 01:34:56;;;;;;;6.20;3.05;;;;;;;;;;359395;147;858823;-59
2022/05/10 01:36:03;;;;;;;6.97;2.93;;;;;;;;;;361508;147;856226;-59
2022/05/10 01:37:05;;;;;;;9.87;2.78;;;;;;;;;;365599;147;857882;-58
2022/05/10 01:38:29;;;;;;;8.55;2.93;;;;;;;;;;361514;147;858227;-59
2022/05/10 01:39:32;;;;;;;4.32;2.41;;;;;;;;;;364567;147;861173;-58
2022/05/10 01:40:41;;;;;;;5.65;2.47;;;;;;;;;;364249;147;857965;-58
2022/05/10 01:41:51;;;;;;;5.25;2.38;;;;;;;;;;359052;147;856125;-58
2022/05/10 01:42:54;;;;;;;6.87;2.52;;;;;;;;;;362161;147;858123;-59
2022/05/10 01:43:58;;;;;;;4.41;2.51;;;;;;;;;;364575;147;857233;-59
2022/05/10 01:45:01;;;;;;;5.53;2.42;;;;;;;;;;362595;147;857282;-59
2022/05/10 01:46:05;;;;;;;4.87;2.45;;;;;;;;;;363928;147;857289;-59
2022/05/10 01:47:08;;;;;;;5.05;2.58;;;;;;;;;;365778;147;857395;-59
2022/05/10 01:48:10;;;;;;;4.44;2.34;;;;;;;;;;365211;147;859115;-59
2022/05/10 01:49:14;;;;;;;1.03;0.97;;;;;;;;;;365183;147;858112;-59
2022/05/10 01:50:18;;;;;;;2.03;1.22;;;;;;;;;;362011;147;860182;-59
2022/05/10 01:51:21;;;;;;;5.20;1.41;;;;;;;;;;365402;147;857315;-59
2022/05/10 01:52:42;;;;;;;1.48;0.93;;;;;;;;;;365541;147;857212;-59
2022/05/10 01:53:43;;;;;;;;;;;;;;;;;;363343;147;856659;-59
2022/05/10 01:55:03;;;;;;;2.05;1.68;;;;;;;;;;364854;147;857183;-59
2022/05/10 01:56:09;;;;;;;1.67;0.92;;;;;;;;;;362462;147;858989;-59
2022/05/10 01:57:12;;;;;;;5.51;1.44;;;;;;;;;;359249;147;857230;-59
2022/05/10 01:58:17;;;;;;;3.06;1.75;;;;;;;;;;359216;150;859975;-59
2022/05/10 01:59:19;;;;;;;6.34;2.64;;;;;;;;;;359217;150;859444;-59
2022/05/10 02:00:22;;;;;;;2.11;1.23;;;;;;;;;;359532;150;857751;-59
2022/05/10 02:01:25;;;;;;;3.10;1.34;;;;;;;;;;359516;150;858263;-59
2022/05/10 02:02:26;;;;;;;4.25;1.78;;;;;;;;;;359392;150;859333;-59
2022/05/10 02:03:29;;;;;;;3.87;1.63;;;;;;;;;;359427;150;858915;-59
2022/05/10 02:04:32;;;;;;;4.51;2.51;;;;;;;;;;364225;147;857315;-59
2022/05/10 02:05:41;;;;;;;3.83;1.88;;;;;;;;;;365872;147;859828;-59
2022/05/10 02:06:48;;;;;;;4.53;2.43;;;;;;;;;;365484;147;858945;-57
2022/05/10 02:07:49;;;;;;;3.53;1.78;;;;;;;;;;365484;147;857685;-57
2022/05/10 02:09:09;;;;;;;1.68;1.41;;;;;;;;;;366200;147;856588;-58
2022/05/10 02:10:12;;;;;;;9.04;4.28;;;;;;;;;;365974;147;856165;-58
2022/05/10 02:11:14;;;;;;;8.95;3.59;;;;;;;;;;366199;147;856521;-58
2022/05/10 02:12:20;;;;;;;10.25;4.01;;;;;;;;;;366255;147;856027;-58
2022/05/10 02:13:27;;;;;;;8.88;3.88;;;;;;;;;;361985;147;856060;-58
2022/05/10 02:14:45;;;;;;;11.60;3.67;;;;;;;;;;363323;147;856567;-58
2022/05/10 02:16:04;;;;;;;10.54;3.91;;;;;;;;;;359262;148;856186;-58
2022/05/10 02:17:10;;;;;;;10.98;4.38;;;;;;;;;;359229;150;856873;-58
2022/05/10 02:18:17;;;;;;;9.96;4.13;;;;;;;;;;359272;150;856053;-58
2022/05/10 02:19:20;;;;;;;11.67;4.31;;;;;;;;;;359086;150;856100;-58
2022/05/10 02:20:28;;;;;;;11.06;4.38;;;;;;;;;;359004;148;856646;-58
2022/05/10 02:21:31;;;;;;;10.77;4.33;;;;;;;;;;359228;150;856796;-59
2022/05/10 02:26:22;;;;;;;14.87;5.41;;;;;;;2.88;59.85;100747.33;374547;142;883216;-57
2022/05/10 02:27:30;;;;;;;10.36;4.34;;;;;;;2.78;59.89;100751.23;366487;147;858802;-58
2022/05/10 02:28:44;;;;;;;12.41;4.79;;;;;;;2.81;59.89;100754.71;365200;147;857366;-58
2022/05/10 02:29:49;;;;;;;11.46;4.49;;;;;;;2.82;59.83;100753.90;366434;147;858120;-57
2022/05/10 02:30:52;;;;;;;11.19;5.16;;;;;;;2.83;59.86;100750.52;366469;147;857660;-57
2022/05/10 02:33:41;;;;;;;10.99;4.77;;;;;;;2.89;60.06;100743.08;366452;147;857288;-57
2022/05/10 02:34:44;;;;;;;12.60;4.85;;;;;;;2.96;59.88;100741.63;366659;147;857235;-57
2022/05/10 02:35:48;;;;;;;10.90;4.60;;;;;;;2.97;59.74;100743.36;366592;147;857263;-57
2022/05/10 02:36:50;;;;;;;13.89;4.85;;;;;;;;;;359127;150;857774;-58
2022/05/10 02:37:52;;;;;;;14.48;4.74;;;;;;;;;;355814;148;857254;-58
2022/05/10 02:38:53;;;;;;;8.94;4.42;;;;;;;;;;362129;148;866991;-57
2022/05/10 02:39:55;;;;;;;9.42;4.67;;;;;;;;;;363171;148;857530;-58
2022/05/10 02:40:57;;;;;;;11.09;4.51;;;;;;;;;;364024;148;865095;-58
2022/05/10 02:41:59;;;;;;;3.82;2.08;;;;;;;;;;361793;148;866984;-57
2022/05/10 02:43:01;;;;;;;4.50;2.13;;;;;;;;;;357467;150;857330;-57
2022/05/10 02:44:02;;;;;;;3.56;1.67;;;;;;;;;;353614;150;866463;-58
2022/05/10 02:45:04;;;;;;;3.94;2.06;;;;;;;;;;351514;150;858746;-57
2022/05/10 02:46:06;;;;;;;12.61;2.13;;;;;;;;;;350966;153;864874;-57
2022/05/10 02:47:08;;;;;;;4.86;2.35;;;;;;;;;;351075;153;857819;-58
2022/05/10 02:48:14;;;;;;;5.58;2.09;;;;;;;;;;351093;153;865349;-58
2022/05/10 02:49:17;;;;;;;5.53;2.29;;;;;;;;;;350638;153;864750;-59
2022/05/10 02:50:27;;;;;;;3.45;1.86;;;;;;;;;;351539;153;859482;-58
2022/05/10 02:51:28;;;;;;;6.52;2.97;;;;;;;;;;358912;149;857366;-59
2022/05/10 02:52:30;;;;;;;10.26;4.87;;;;;;;;;;359120;150;857390;-58
2022/05/10 02:53:31;;;;;;;15.63;6.44;;;;;;;;;;359403;149;857479;-58
2022/05/10 02:54:33;;;;;;;17.04;6.04;;;;;;;;;;353369;149;859083;-58
2022/05/10 02:55:39;;;;;;;14.75;5.66;;;;;;;;;;352970;152;856576;-58
2022/05/10 02:56:41;;;;;;;14.15;6.57;;;;;;;;;;352834;150;859106;-59
2022/05/10 02:57:43;;;;;;;19.71;7.29;;;;;;;;;;355632;150;857719;-58
2022/05/10 02:58:49;;;;;;;16.56;6.06;;;;;;;;;;368677;141;859008;-58
2022/05/10 02:59:50;;;;;;;15.72;5.27;;;;;;;;;;367133;145;865867;-59
2022/05/10 03:00:54;;;;;;;14.01;5.91;;;;;;;;;;364925;145;857648;-59
2022/05/10 03:01:57;;;;;;;15.91;5.40;;;;;;;;;;366708;143;865412;-59
2022/05/10 03:03:00;;;;;;;16.32;5.69;;;;;;;;;;371307;145;858846;-58
2022/05/10 03:04:01;;;;;;;13.99;5.56;;;;;;;;;;366056;145;857258;-58
2022/05/10 03:05:04;;;;;;;12.14;5.47;;;;;;;;;;369249;145;857737;-59
2022/05/10 03:06:06;;;;;;;12.56;5.39;;;;;;;;;;371334;145;857994;-57
2022/05/10 03:07:08;;;;;;;12.86;5.10;;;;;;;;;;366330;144;857167;-58
2022/05/10 03:08:09;;;;;;;11.71;5.59;;;;;;;;;;364723;145;866423;-57
2022/05/10 03:09:11;;;;;;;12.81;5.38;;;;;;;;;;364714;145;866043;-57
2022/05/10 03:10:13;;;;;;;17.45;5.53;;;;;;;;;;364926;145;861455;-57
2022/05/10 03:11:15;;;;;;;11.84;5.37;;;;;;;;;;365819;145;858172;-57
2022/05/10 03:12:16;;;;;;;14.78;5.07;;;;;;;;;;370258;145;865032;-57
2022/05/10 03:13:19;;;;;;;14.74;5.19;;;;;;;;;;369710;145;865925;-58
2022/05/10 03:14:21;;;;;;;13.46;5.34;;;;;;;;;;369774;145;865433;-57
2022/05/10 03:15:22;;;;;;;14.10;4.83;;;;;;;;;;370146;145;856203;-57
2022/05/10 03:16:24;;;;;;;13.56;4.81;;;;;;;;;;370100;145;855972;-58
2022/05/10 03:17:26;;;;;;;11.46;4.95;;;;;;;;;;370046;145;863700;-57
2022/05/10 03:18:27;;;;;;;11.63;5.15;;;;;;;;;;370103;145;863781;-58
2022/05/10 03:19:29;;;;;;;10.42;5.09;;;;;;;;;;370065;145;864472;-58
2022/05/10 03:20:31;;;;;;;10.74;5.00;;;;;;;;;;370078;145;863987;-58
2022/05/10 03:21:34;;;;;;;12.41;5.23;;;;;;;;;;370135;145;856546;-58
2022/05/10 03:24:20;;;;;;;6.42;3.25;;;;;;;4.31;59.06;100743.52;379772;141;881897;-57
2022/05/10 03:25:22;;;;;;;6.40;3.04;;;;;;;4.22;58.77;100747.51;370718;138;857096;-58
2022/05/10 03:26:45;;;;;;;7.77;2.61;;;;;;;4.22;58.58;100755.20;347492;155;858580;-58
2022/05/10 03:27:49;;;;;;;4.68;2.47;;;;;;;4.21;58.62;100755.17;348210;154;859347;-58
2022/05/10 03:28:50;;;;;;;3.12;1.96;;;;;;;;;;348138;154;858909;-58
2022/05/10 03:29:52;;;;;;;3.69;2.04;;;;;;;;;;348480;154;858929;-58
2022/05/10 03:30:54;;;;;;;7.58;2.69;;;;;;;;;;347525;154;866530;-57
2022/05/10 03:31:55;;;;;;;13.36;5.24;;;;;;;;;;346806;154;865731;-57
2022/05/10 03:32:57;;;;;;;12.52;4.95;;;;;;;;;;346778;154;865310;-57
2022/05/10 03:35:19;;;;;;;14.38;4.99;;;;;;;;;;346430;155;866467;-58
2022/05/10 03:36:21;;;;;;;14.90;5.85;;;;;;;;;;346743;154;866513;-58
2022/05/10 03:37:23;;;;;;;12.56;5.14;;;;;;;;;;345490;155;857286;-58
2022/05/10 03:38:24;;;;;;;10.85;4.97;;;;;;;;;;342466;154;857740;-58
2022/05/10 03:39:26;;;;;;;15.61;5.96;;;;;;;;;;342719;155;864972;-59
2022/05/10 03:40:28;;;;;;;14.85;5.86;;;;;;;;;;346719;155;857702;-58
2022/05/10 03:41:30;;;;;;;13.71;5.75;;;;;;;;;;346703;155;857271;-58
2022/05/10 03:42:32;;;;;;;17.07;6.01;;;;;;;;;;344487;155;857280;-58
2022/05/10 03:43:34;;;;;;;14.33;6.41;;;;;;;;;;344254;156;860137;-58
2022/05/10 03:44:35;;;;;;;13.17;6.38;;;;;;;;;;344378;156;866640;-59
2022/05/10 03:45:37;;;;;;;18.09;6.09;;;;;;;;;;338738;158;859458;-59
2022/05/10 03:46:39;;;;;;;15.91;7.49;;;;;;;;;;338721;156;861547;-59
2022/05/10 03:47:40;;;;;;;14.51;6.83;;;;;;;;;;338573;158;857749;-59
2022/05/10 03:48:42;;;;;;;16.76;6.95;;;;;;;;;;338671;158;858361;-58
2022/05/10 03:49:45;;;;;;;15.86;7.26;;;;;;;;;;338605;159;866730;-58
2022/05/10 03:50:47;;;;;;;21.61;8.19;;;;;;;;;;342173;156;865030;-58
2022/05/10 03:51:48;;;;;;;19.04;8.58;;;;;;;;;;339719;156;857470;-58
2022/05/10 03:52:50;;;;;;;18.74;8.39;;;;;;;;;;344453;156;857183;-58
2022/05/10 03:53:51;;;;;;;17.42;8.31;;;;;;;;;;344276;156;864907;-58
2022/05/10 03:54:53;;;;;;;19.14;8.06;;;;;;;;;;344400;155;864974;-59
2022/05/10 03:55:54;;;;;;;21.05;8.39;;;;;;;;;;344431;156;865088;-57
2022/05/10 03:56:58;;;;;;;17.89;7.82;;;;;;;;;;344384;155;857301;-58
2022/05/10 03:57:59;;;;;;;22.39;9.15;;;;;;;;;;344361;156;865019;-59
2022/05/10 03:59:01;;;;;;;14.44;7.32;;;;;;;;;;343608;156;858234;-59
2022/05/10 04:00:04;;;;;;;14.81;7.20;;;;;;;;;;338906;156;857446;-58
2022/05/10 04:01:07;;;;;;;11.10;5.01;;;;;;;;;;338834;156;857724;-59
2022/05/10 04:02:09;;;;;;;11.99;5.24;;;;;;;;;;338608;156;859156;-60
2022/05/10 04:03:11;;;;;;;7.93;3.63;;;;;;;;;;338848;156;857235;-59
2022/05/10 04:04:13;;;;;;;12.07;3.52;;;;;;;;;;341139;156;864843;-59
2022/05/10 04:05:15;;;;;;;4.12;2.05;;;;;;;;;;339476;156;864819;-59
2022/05/10 04:06:19;;;;;;;11.20;3.92;;;;;;;;;;338569;156;866539;-59
2022/05/10 04:07:20;;;;;;;8.62;3.69;;;;;;;;;;338925;156;857859;-59
2022/05/10 04:08:23;;;;;;;13.21;3.55;;;;;;;;;;338994;156;857226;-59
2022/05/10 04:09:25;;;;;;;7.61;3.87;;;;;;;;;;338782;159;857253;-59
2022/05/10 04:10:27;;;;;;;8.27;3.61;;;;;;;;;;343666;156;857765;-59
2022/05/10 04:11:28;;;;;;;7.24;3.26;;;;;;;;;;344770;156;858318;-59
2022/05/10 04:12:30;;;;;;;8.95;4.27;;;;;;;;;;344496;155;859445;-60
2022/05/10 04:13:32;;;;;;;11.48;5.20;;;;;;;;;;344687;156;858674;-59
2022/05/10 04:14:33;;;;;;;19.99;8.01;;;;;;;;;;339101;156;865271;-59
2022/05/10 04:15:35;;;;;;;21.08;7.79;;;;;;;;;;338816;158;856407;-57
2022/05/10 04:16:36;;;;;;;16.31;8.36;;;;;;;;;;338894;156;864779;-59
2022/05/10 04:17:38;;;;;;;16.71;8.41;;;;;;;;;;338797;156;865025;-59
2022/05/10 04:18:39;;;;;;;19.07;9.01;;;;;;;;;;341724;153;865070;-59
2022/05/10 04:19:41;;;;;;;22.99;9.21;;;;;;;;;;349880;153;857169;-59
2022/05/10 04:20:43;;;;;;;24.54;9.25;;;;;;;;;;340619;156;866624;-59
2022/05/10 04:21:44;;;;;;;22.11;8.61;;;;;;;;;;344509;155;865180;-59
2022/05/10 04:22:46;;;;;;;21.19;9.65;;;;;;;;;;344521;156;866359;-59
2022/05/10 04:23:47;;;;;;;21.95;10.00;;;;;;;;;;344617;155;865743;-59
2022/05/10 04:24:49;;;;;;;32.40;11.93;;;;;;;;;;342229;156;858896;-59
2022/05/10 04:25:50;;;;;;;31.49;13.24;;;;;;;;;;340707;156;859334;-59
2022/05/10 04:26:52;;;;;;;27.97;13.37;;;;;;;;;;338874;156;858249;-59
2022/05/10 04:27:54;;;;;;;31.21;13.24;;;;;;;;;;344965;152;865736;-59
2022/05/10 04:28:55;;;;;;;34.20;13.01;;;;;;;;;;353758;151;860122;-59
2022/05/10 04:29:57;;;;;;;33.85;13.41;;;;;;;;;;352906;151;861524;-59
2022/05/10 04:30:58;;;;;;;27.70;12.05;;;;;;;;;;353557;150;860018;-60
2022/05/10 04:32:00;;;;;;;32.59;12.71;;;;;;;;;;350935;151;865940;-58
2022/05/10 04:33:01;;;;;;;34.13;14.26;;;;;;;;;;351101;151;858683;-58
2022/05/10 04:34:03;;;;;;;29.77;13.46;;;;;;;;;;350905;151;859740;-58
2022/05/10 04:35:05;;;;;;;31.28;13.68;;;;;;;;;;350906;151;864947;-58
2022/05/10 04:36:08;;;;;;;30.54;14.15;;;;;;;;;;350937;151;857638;-58
2022/05/10 04:37:10;;;;;;;35.77;14.29;;;;;;;;;;353467;151;862503;-59
2022/05/10 04:38:11;;;;;;;35.46;15.26;;;;;;;;;;353657;151;857327;-60
2022/05/10 04:39:13;;;;;;;35.00;16.38;;;;;;;;;;350924;151;865044;-59
2022/05/10 04:41:37;;;;;;;33.39;13.34;;;;;;;;;;350330;151;856892;-59
2022/05/10 04:42:38;;;;;;;33.43;11.59;;;;;;;;;;357118;149;864019;-59
2022/05/10 04:43:40;;;;;;;34.39;12.24;;;;;;;;;;352021;153;856148;-59
2022/05/10 04:44:41;;;;;;;31.04;11.39;;;;;;;;;;352063;153;858725;-59
2022/05/10 04:45:43;;;;;;;26.00;11.43;;;;;;;;;;351202;151;856142;-59
2022/05/10 04:46:45;;;;;;;29.31;10.64;;;;;;;;;;351179;151;863867;-59
2022/05/10 04:47:46;;;;;;;39.01;12.66;;;;;;;;;;351224;151;856110;-59
2022/05/10 04:48:48;;;;;;;27.08;10.29;;;;;;;;;;351131;151;863922;-59
2022/05/10 04:49:49;;;;;;;28.66;11.36;;;;;;;;;;351355;151;863920;-59
2022/05/10 04:50:51;;;;;;;36.27;15.10;;;;;;;;;;351206;151;856797;-59
2022/05/10 04:51:52;;;;;;;32.20;14.27;;;;;;;;;;351224;151;856512;-60
2022/05/10 04:52:54;;;;;;;34.28;13.84;;;;;;;;;;351211;151;856356;-59
2022/05/10 04:53:55;;;;;;;29.10;13.59;;;;;;;;;;352300;148;856175;-59
2022/05/10 04:54:57;;;;;;;32.72;13.74;;;;;;;;;;351204;151;856617;-59
2022/05/10 04:55:58;;;;;;;34.00;13.76;;;;;;;;;;351975;151;863844;-59
2022/05/10 04:57:01;;;;;;;28.91;12.72;;;;;;;;;;353661;149;856081;-59
2022/05/10 04:58:02;;;;;;;43.27;14.96;;;;;;;;;;352315;151;863984;-59
2022/05/10 04:59:03;;;;;;;32.30;12.61;;;;;;;;;;352249;151;856435;-59
2022/05/10 05:00:06;;;;;;;33.56;13.38;;;;;;;;;;357479;150;856338;-59
2022/05/10 05:01:08;;;;;;;43.31;15.54;;;;;;;;;;357432;151;863999;-59
2022/05/10 05:04:00;;;;;;;29.97;12.71;;;;;;;9.57;41.58;100750.53;373261;141;869547;-59
2022/05/10 05:05:02;;;;;;;31.31;13.42;;;;;;;9.55;41.58;100753.09;359236;150;857335;-59
2022/05/10 05:06:04;;;;;;;33.45;13.36;;;;;;;9.59;41.60;100744.51;359332;150;857205;-59
2022/05/10 05:07:06;;;;;;;29.18;12.32;;;;;;;9.55;41.28;100749.66;359342;150;859218;-59
2022/05/10 05:08:08;;;;;;;32.44;12.14;;;;;;;9.64;40.87;100755.75;359314;150;857161;-59
2022/05/10 05:09:10;;;;;;;32.12;12.95;;;;;;;9.56;40.63;100751.39;359311;150;865371;-59
2022/05/10 05:10:14;;;;;;;30.65;12.78;;;;;;;9.64;40.31;100745.41;359005;150;867180;-59
2022/05/10 05:11:16;;;;;;;36.30;13.43;;;;;;;9.72;40.63;100758.42;359288;150;859102;-59
2022/05/10 05:12:18;;;;;;;32.46;13.61;;;;;;;9.76;40.13;100752.42;360217;148;867102;-59
2022/05/10 05:13:19;;;;;;;30.55;12.78;;;;;;;9.82;40.21;100754.18;362226;148;858799;-61
2022/05/10 05:14:21;;;;;;;31.24;12.88;;;;;;;9.90;40.15;100751.67;362147;148;865626;-59
2022/05/10 05:15:23;;;;;;;28.20;12.29;;;;;;;9.97;39.95;100756.03;363494;148;866487;-58
2022/05/10 05:16:25;;;;;;;26.11;11.61;;;;;;;10.02;39.43;100758.64;362563;147;865081;-59
2022/05/10 05:17:26;;;;;;;28.46;12.31;;;;;;;10.07;39.71;100755.24;359367;149;857613;-58
2022/05/10 05:18:28;;;;;;;26.55;9.91;;;;;;;10.03;40.52;100758.66;359341;150;865276;-58
2022/05/10 05:19:30;;;;;;;29.42;10.07;;;;;;;10.14;40.59;100757.88;359434;149;859278;-59
2022/05/10 05:20:32;;;;;;;28.08;10.76;;;;;;;10.18;40.49;100754.45;359334;150;865753;-59
2022/05/10 05:21:34;;;;;;;21.01;9.24;;;;;;;10.21;40.29;100755.35;359396;150;857983;-59
2022/05/10 05:22:36;;;;;;;19.63;8.45;;;;;;;10.26;40.35;100754.52;362265;148;857852;-59
2022/05/10 05:23:37;;;;;;;22.37;9.57;;;;;;;10.29;39.72;100750.20;362445;148;857457;-58
2022/05/10 05:24:39;;;;;;;22.65;8.49;;;;;;;10.30;39.73;100754.53;362378;148;857367;-59
2022/05/10 05:25:41;;;;;;;16.45;7.24;;;;;;;10.34;40.04;100751.09;363108;148;865050;-59
2022/05/10 05:26:45;;;;;;;22.94;8.48;;;;;;;10.38;40.17;100752.00;364085;147;858052;-58
2022/05/10 05:27:46;;;;;;;23.08;9.09;;;;;;;10.41;39.89;100748.58;364026;148;858212;-58
2022/05/10 05:28:48;;;;;;;24.49;10.41;;;;;;;10.41;40.12;100745.98;364006;147;857166;-58
2022/05/10 05:29:50;;;;;;;24.42;10.10;;;;;;;10.17;40.34;100753.59;364007;147;864887;-58
2022/05/10 05:30:52;;;;;;;20.98;8.63;;;;;;;10.30;40.14;100754.53;365103;147;864824;-58
2022/05/10 05:31:54;;;;;;;24.34;9.25;;;;;;;10.40;39.73;100747.73;365675;147;859829;-58
2022/05/10 05:32:55;;;;;;;19.77;9.71;;;;;;;10.47;39.34;100743.43;365619;147;866172;-59
2022/05/10 05:33:57;;;;;;;18.61;9.46;;;;;;;10.51;39.77;100738.30;362491;147;865227;-58
2022/05/10 05:34:59;;;;;;;25.03;9.37;;;;;;;10.60;39.68;100742.66;362423;148;866647;-58
2022/05/10 05:36:01;;;;;;;23.78;10.01;;;;;;;10.71;39.87;100734.92;367195;146;864814;-59
2022/05/10 05:38:24;;;;;;;;;;;;;;;10.89;39.28;100728.08;365184;148;864681;-60
2022/05/10 05:43:54;;;;;;;22.16;10.26;;;;;;;11.25;37.60;100732.51;374779;142;880576;-59
2022/05/10 05:44:56;;;;;;;29.97;10.81;;;;;;;11.05;37.83;100723.82;365992;147;857081;-59
2022/05/10 05:45:58;;;;;;;26.09;11.25;;;;;;;10.98;38.11;100732.44;366033;147;858992;-59
2022/05/10 05:46:59;;;;;;;26.89;11.66;;;;;;;11.08;38.17;100729.86;366108;147;858483;-59
2022/05/10 05:48:01;;;;;;;27.19;11.52;;;;;;;11.17;38.25;100738.55;365972;147;864721;-59
2022/05/10 05:49:03;;;;;;;25.37;10.47;;;;;;;11.26;38.12;100735.98;366015;147;864887;-59
2022/05/10 05:50:05;;;;;;;19.04;8.73;;;;;;;11.36;37.93;100740.31;365820;147;865052;-59
2022/05/10 05:51:07;;;;;;;18.57;9.10;;;;;;;11.40;37.41;100739.45;365944;147;858644;-59
2022/05/10 05:52:09;;;;;;;23.37;10.66;;;;;;;11.49;37.09;100732.55;365438;145;857304;-59
2022/05/10 05:53:11;;;;;;;17.68;8.91;;;;;;;11.53;36.58;100731.69;364565;147;864846;-59
2022/05/10 05:54:12;;;;;;;18.86;8.09;;;;;;;11.54;36.02;100739.45;365239;147;858910;-59
2022/05/10 05:55:14;;;;;;;18.59;7.67;;;;;;;11.58;36.23;100731.67;365888;147;866600;-59
2022/05/10 05:56:17;;;;;;;19.93;7.92;;;;;;;11.63;35.83;100735.13;365871;147;864969;-59
2022/05/10 05:57:20;;;;;;;21.73;8.22;;;;;;;11.64;35.85;100734.27;366054;147;857244;-59
2022/05/10 05:58:22;;;;;;;20.02;8.46;;;;;;;11.64;35.58;100732.55;365914;147;858035;-59
2022/05/10 05:59:23;;;;;;;17.23;7.39;;;;;;;11.66;35.83;100738.61;362489;147;859024;-59
2022/05/10 06:00:26;;;;;;;17.48;7.10;;;;;;;11.67;35.62;100732.55;360825;146;857269;-59
2022/05/10 06:01:28;;;;;;;18.12;7.77;;;;;;;11.69;35.99;100736.02;359348;149;857461;-58
2022/05/10 06:02:30;;;;;;;17.81;6.88;;;;;;;11.71;35.39;100729.96;359287;147;865131;-59
2022/05/10 06:03:32;;;;;;;14.69;6.09;;;;;;;11.72;34.84;100735.17;359187;150;859632;-59
2022/05/10 06:04:34;;;;;;;13.59;5.77;;;;;;;11.50;32.90;100732.53;360371;148;857794;-59
2022/05/10 06:05:36;;;;;;;12.30;6.04;;;;;;;11.52;32.45;100729.95;356610;151;856520;-59
2022/05/10 06:06:37;;;;;;;13.44;6.69;;;;;;;11.62;32.34;100728.22;356489;151;864169;-59